Portada
METAR-TAF:

METAR-TAF

Aeroports :

Plymouth Municipal Airport

Plymouth, Massachusetts, Estats Units d'Amèrica

latitud: 41-54-31N, longitud: 070-43-41W, altitud: 45 m

Observació

L'informe es va fer fa 2 hores i 28 minuts, a les 19:25 UTC
Vent 12 kt del Sud/Sud-Oest amb ràfegues de 20 kt
Temperatura 16°C
Humitat 88%
Pressió 1015 hPa
Visibilitat: 3.2 km
Cel ennuvolat a una alçada de 800 ft
Cel ennuvolat a una alçada de 1300 ft
Cel cobert a una alçada de 2200 ft
pluja, boirina

METAR: KPYM 261925Z AUTO 20012G20KT 2SM +RA BR BKN008 BKN013 OVC022 16/14 A2997 RMK AO2 P0012 T01560144

Hora: 16:53 (21:53 UTC)


TAF: manca

Observacions i pronòstics meteorològics de més de 4000 aeroports (METAR i TAF).

Les estacions disponibles són els punts grocs i vermells al mapa.

Posi el ratolí al punt desitjat per veure el nom de l'estació.

Feu clic per veure les observacions i els pronòstics meteorològics.

Per canviar el mapa: feu clic els botons verds amb una creu de color negre per apropar; al botó verd amb un guió per allunyar la imatge; o en les fletxes verdes per a mapes adjacents.


METAR-TAF: